Terminal Aerodrome Forecast
Issued by NWS

Home | Current Version | Previous Version | Text Only | Print | Product List | Glossary On
Versions: 1 2 3 4 5 6 7 8 9 10 11 12 13
105
FTUS44 KTSA 210520
TAFBVO
TAF
KBVO 210520Z 2106/2206 14005KT P6SM OVC150
     FM210700 10006KT P6SM -SHRA OVC080
     FM211500 07007KT 5SM -RA BR OVC020=

USA.gov is the U.S. government's official web portal to all federal, state and local government web resources and services.